Time;durP1;ratioP1;P1;durP2;ratioP2;P2;SDS_P1;SDS_P2;PMS_P1;PMS_P2;Temp;Humidity;BMP_temperature;BMP_pressure;BME280_temperature;BME280_humidity;BME280_pressure;Samples;Min_cycle;Max_cycle;Signal;HPM_P1;HPM_P2
2023/07/18 00:01:39;;;;;;;;;2.33;2.33;;;;;18.35;100.00;98465.41;4951954;28;102148;-87
2023/07/18 00:04:07;;;;;;;;;2.00;2.00;;;;;18.33;100.00;98471.13;4956863;28;102548;-87
2023/07/18 00:06:34;;;;;;;;;2.67;2.67;;;;;18.33;100.00;98468.41;4961353;28;102399;-87
2023/07/18 00:09:04;;;;;;;;;1.33;1.33;;;;;18.34;100.00;98478.28;4955231;28;104129;-87
2023/07/18 00:11:31;;;;;;;;;2.00;2.00;;;;;18.31;100.00;98476.06;4953058;28;102372;-87
2023/07/18 00:13:58;;;;;;;;;3.00;3.00;;;;;18.28;100.00;98484.78;4956323;28;101975;-86
2023/07/18 00:16:25;;;;;;;;;3.67;3.67;;;;;18.24;100.00;98475.41;4956889;28;102747;-86
2023/07/18 00:18:52;;;;;;;;;2.00;2.00;;;;;18.21;100.00;98478.66;4948257;28;104114;-86
2023/07/18 00:21:20;;;;;;;;;2.33;2.33;;;;;18.17;100.00;98483.81;4962352;28;102433;-87
2023/07/18 00:23:48;;;;;;;;;4.00;4.00;;;;;18.11;100.00;98481.25;4960290;28;102726;-87
2023/07/18 00:26:15;;;;;;;;;3.00;3.00;;;;;18.08;100.00;98487.22;4966664;28;102122;-87
2023/07/18 00:28:42;;;;;;;;;4.00;4.00;;;;;18.07;100.00;98482.81;4963217;28;104219;-86
2023/07/18 00:31:09;;;;;;;;;1.00;1.00;;;;;18.04;100.00;98484.19;4958775;28;102350;-85
2023/07/18 00:33:37;;;;;;;;;6.00;6.00;;;;;18.05;100.00;98476.78;4957389;28;102575;-86
2023/07/18 00:36:04;;;;;;;;;11.33;10.33;;;;;18.06;100.00;98464.75;4959680;28;102002;-87
2023/07/18 00:38:31;;;;;;;;;7.33;7.00;;;;;18.08;100.00;98462.59;4954478;28;104026;-86
2023/07/18 00:40:58;;;;;;;;;11.00;11.00;;;;;18.05;100.00;98454.91;4950992;28;103413;-86
2023/07/18 00:43:31;;;;;;;;;13.00;12.00;;;;;18.01;100.00;98454.56;4948600;28;102287;-86
2023/07/18 00:46:01;;;;;;;;;7.00;7.00;;;;;18.02;100.00;98460.88;4956158;28;102293;-85
2023/07/18 00:48:28;;;;;;;;;4.67;4.67;;;;;18.01;100.00;98460.03;4959583;28;104187;-86
2023/07/18 00:50:56;;;;;;;;;5.67;5.00;;;;;18.02;100.00;98456.22;4958948;28;102515;-86
2023/07/18 00:53:23;;;;;;;;;5.00;5.00;;;;;18.04;100.00;98448.59;4952459;28;102650;-85
2023/07/18 00:55:52;;;;;;;;;6.00;4.00;;;;;18.05;100.00;98436.59;4950944;28;102290;-86
2023/07/18 00:58:19;;;;;;;;;5.33;4.33;;;;;18.10;100.00;98447.56;4952846;28;104068;-85
2023/07/18 01:00:46;;;;;;;;;3.00;3.00;;;;;18.13;100.00;98452.56;4951132;28;102175;-86
2023/07/18 01:03:15;;;;;;;;;5.33;5.33;;;;;18.16;100.00;98443.00;4942026;28;107902;-85
2023/07/18 01:05:54;;;;;;;;;6.00;4.33;;;;;18.21;100.00;98451.28;4954014;28;102337;-85
2023/07/18 01:08:40;;;;;;;;;5.00;4.00;;;;;18.21;100.00;98443.91;4951305;28;103153;-85
2023/07/18 01:11:29;;;;;;;;;5.33;4.67;;;;;18.23;100.00;98441.75;4954076;28;102477;-86
2023/07/18 01:14:11;;;;;;;;;2.33;2.00;;;;;18.19;100.00;98456.19;4949214;28;102308;-85
2023/07/18 01:17:00;;;;;;;;;4.67;4.67;;;;;18.13;100.00;98457.19;4943753;28;102676;-85
2023/07/18 01:19:36;;;;;;;;;4.00;4.00;;;;;18.15;100.00;98452.28;4947648;28;107904;-85
2023/07/18 01:22:03;;;;;;;;;6.00;6.00;;;;;18.09;100.00;98461.53;4950186;28;102371;-85
2023/07/18 01:24:30;;;;;;;;;8.00;8.00;;;;;18.05;100.00;98493.22;4927905;28;102109;-86
2023/07/18 01:26:57;;;;;;;;;9.00;9.00;;;;;18.10;100.00;98479.59;4955113;28;102121;-86
2023/07/18 01:29:24;;;;;;;;;15.67;15.67;;;;;18.12;100.00;98458.28;4942182;28;104173;-85
2023/07/18 01:31:51;;;;;;;;;17.00;16.00;;;;;18.12;100.00;98463.75;4948559;28;102234;-85
2023/07/18 01:34:18;;;;;;;;;10.00;10.00;;;;;18.16;100.00;98470.38;4945643;28;102013;-86
2023/07/18 01:36:45;;;;;;;;;11.67;10.33;;;;;18.21;100.00;98467.69;4951860;28;102275;-86
2023/07/18 01:39:12;;;;;;;;;7.33;7.00;;;;;18.23;100.00;98473.75;4947763;28;104306;-86
2023/07/18 01:41:39;;;;;;;;;7.00;7.00;;;;;18.22;100.00;98466.63;4953661;28;102621;-86
2023/07/18 01:44:08;;;;;;;;;8.00;7.00;;;;;18.24;100.00;98470.75;4954441;28;102210;-86
2023/07/18 01:46:35;;;;;;;;;7.00;7.00;;;;;18.26;100.00;98473.25;4956542;28;102353;-86
2023/07/18 01:49:02;;;;;;;;;8.00;7.00;;;;;18.18;100.00;98470.97;4951318;28;104202;-85
2023/07/18 01:51:29;;;;;;;;;8.33;8.33;;;;;18.14;100.00;98480.75;4950665;28;107334;-84
2023/07/18 01:53:56;;;;;;;;;10.00;8.33;;;;;18.18;100.00;98487.38;4963673;28;102088;-84
2023/07/18 01:56:23;;;;;;;;;5.00;5.00;;;;;18.21;100.00;98508.75;4956398;28;102574;-86
2023/07/18 01:58:50;;;;;;;;;6.33;6.33;;;;;18.21;100.00;98508.75;4960300;28;104000;-85
2023/07/18 02:01:17;;;;;;;;;6.67;6.00;;;;;18.10;100.00;98517.91;4957947;28;102188;-85
2023/07/18 02:03:46;;;;;;;;;7.00;7.00;;;;;18.12;100.00;98526.69;4962494;28;102242;-85
2023/07/18 02:06:13;;;;;;;;;9.67;7.00;;;;;18.13;100.00;98536.56;4953129;28;102215;-86
2023/07/18 02:08:40;;;;;;;;;5.33;5.33;;;;;18.15;100.00;98548.06;4960612;28;104006;-84
2023/07/18 02:11:07;;;;;;;;;10.00;8.33;;;;;17.96;100.00;98538.50;4961944;28;102179;-85
2023/07/18 02:13:35;;;;;;;;;9.67;9.00;;;;;18.00;100.00;98534.19;4958672;28;102505;-85
2023/07/18 02:16:02;;;;;;;;;6.00;5.33;;;;;17.98;100.00;98541.78;4961270;28;102185;-85
2023/07/18 02:18:29;;;;;;;;;8.00;8.00;;;;;17.96;100.00;98554.91;4955116;28;103939;-84
2023/07/18 02:20:56;;;;;;;;;10.00;10.00;;;;;17.94;100.00;98562.53;4948082;28;102721;-87
2023/07/18 02:23:23;;;;;;;;;12.00;10.33;;;;;17.93;100.00;98571.81;4929164;28;102411;-84
2023/07/18 02:25:50;;;;;;;;;19.00;18.25;;;;;17.89;100.00;98578.84;4963925;28;102331;-84
2023/07/18 02:28:17;;;;;;;;;20.25;20.25;;;;;17.88;100.00;98572.53;4951071;28;104014;-90
2023/07/18 02:30:44;;;;;;;;;23.00;22.25;;;;;17.95;100.00;98586.91;4958144;28;101853;-87
2023/07/18 02:33:12;;;;;;;;;28.25;26.00;;;;;17.94;100.00;98587.97;4942977;28;102275;-88
2023/07/18 02:35:39;;;;;;;;;16.50;14.75;;;;;17.94;100.00;98601.66;4957266;28;102272;-84
2023/07/18 02:38:06;;;;;;;;;24.75;21.25;;;;;17.89;100.00;98600.75;4959984;28;109362;-87
2023/07/18 02:40:33;;;;;;;;;25.50;23.75;;;;;17.80;100.00;98612.09;4952786;28;102470;-86
2023/07/18 02:43:00;;;;;;;;;21.00;19.50;;;;;17.83;100.00;98627.19;4938471;28;102802;-83
2023/07/18 02:45:27;;;;;;;;;23.50;20.50;;;;;17.75;100.00;98631.16;4953189;28;102561;-84
2023/07/18 02:47:54;;;;;;;;;20.00;20.00;;;;;17.63;100.00;98644.06;4930688;28;104035;-84
2023/07/18 02:50:21;;;;;;;;;17.00;16.50;;;;;17.64;100.00;98647.63;4948998;28;102171;-87
2023/07/18 02:52:48;;;;;;;;;16.00;13.33;;;;;17.66;100.00;98649.03;4950831;28;102371;-84
2023/07/18 02:55:15;;;;;;;;;13.67;13.67;;;;;17.61;100.00;98662.59;4952419;28;102066;-87
2023/07/18 02:57:42;;;;;;;;;10.33;10.33;;;;;17.64;100.00;98667.59;4952846;28;104076;-86
2023/07/18 03:00:19;;;;;;;;;9.67;8.67;;;;;17.61;100.00;98667.25;4956130;28;103035;-84
2023/07/18 03:02:48;;;;;;;;;7.33;7.33;;;;;17.57;100.00;98655.94;4949212;28;102446;-84
2023/07/18 03:05:17;;;;;;;;;12.00;11.33;;;;;17.43;100.00;98668.22;4954637;28;102394;-85
2023/07/18 03:07:44;;;;;;;;;10.00;8.67;;;;;17.43;100.00;98676.44;4949810;28;104768;-85
2023/07/18 03:10:11;;;;;;;;;9.00;8.33;;;;;17.40;100.00;98675.03;4958667;28;102366;-84
2023/07/18 03:12:40;;;;;;;;;6.00;6.00;;;;;17.42;100.00;98685.72;4951432;28;102493;-84
2023/07/18 03:15:11;;;;;;;;;9.33;8.00;;;;;17.41;100.00;98692.25;4956790;28;103002;-84
2023/07/18 03:17:38;;;;;;;;;7.00;6.00;;;;;17.41;100.00;98684.06;4949289;28;108605;-85
2023/07/18 03:20:27;;;;;;;;;5.00;5.00;;;;;17.38;100.00;98685.34;4953722;28;101921;-87
2023/07/18 03:22:53;;;;;;;;;6.67;6.00;;;;;17.28;100.00;98696.09;4949996;28;102240;-85
2023/07/18 03:25:20;;;;;;;;;6.00;6.00;;;;;17.30;100.00;98698.56;4956374;28;102566;-85
2023/07/18 03:27:48;;;;;;;;;5.00;4.67;;;;;17.09;100.00;98678.22;4949226;28;104132;-85
2023/07/18 03:30:16;;;;;;;;;6.00;5.67;;;;;17.22;100.00;98702.53;4949562;28;103481;-85
2023/07/18 03:32:43;;;;;;;;;5.00;5.00;;;;;17.19;100.00;98694.81;4948466;28;102193;-86
2023/07/18 03:35:11;;;;;;;;;3.67;3.67;;;;;17.17;100.00;98698.84;4948940;28;103265;-86
2023/07/18 03:37:38;;;;;;;;;3.00;3.00;;;;;17.14;100.00;98705.66;4958545;28;104055;-85
2023/07/18 03:40:10;;;;;;;;;4.00;3.67;;;;;17.14;100.00;98713.00;4953245;28;102070;-86
2023/07/18 03:42:37;;;;;;;;;4.67;4.67;;;;;17.08;100.00;98711.22;4961006;28;102175;-86
2023/07/18 03:45:04;;;;;;;;;5.00;5.00;;;;;16.93;100.00;98719.94;4949512;28;102593;-85
2023/07/18 03:47:31;;;;;;;;;3.00;3.00;;;;;16.97;100.00;98714.81;4956028;28;103980;-86
2023/07/18 03:49:58;;;;;;;;;5.00;4.00;;;;;16.95;100.00;98707.69;4950742;28;104470;-86
2023/07/18 03:52:25;;;;;;;;;4.33;4.33;;;;;16.93;100.00;98712.53;4944088;28;102976;-85
2023/07/18 03:54:52;;;;;;;;;3.00;2.00;;;;;16.89;100.00;98705.91;4951134;28;102444;-86
2023/07/18 03:57:19;;;;;;;;;4.00;3.00;;;;;16.90;100.00;98720.38;4953025;28;104047;-86
2023/07/18 03:59:47;;;;;;;;;3.00;3.00;;;;;16.85;100.00;98718.38;4947482;28;102237;-86
2023/07/18 04:02:17;;;;;;;;;3.00;3.00;;;;;16.82;100.00;98713.41;4952348;27;102662;-86
2023/07/18 04:04:44;;;;;;;;;2.67;2.67;;;;;16.77;100.00;98716.00;4953970;28;102509;-85
2023/07/18 04:07:11;;;;;;;;;3.00;2.00;;;;;16.77;100.00;98721.47;4948698;28;104004;-85
2023/07/18 04:09:38;;;;;;;;;2.00;2.00;;;;;16.77;100.00;98726.09;4956339;28;102235;-85
2023/07/18 04:12:05;;;;;;;;;2.00;2.00;;;;;16.76;100.00;98730.72;4943074;28;103437;-85
2023/07/18 04:14:35;;;;;;;;;2.67;2.00;;;;;16.74;100.00;98743.81;4948912;28;102427;-86
2023/07/18 04:17:02;;;;;;;;;2.00;1.67;;;;;16.72;100.00;98740.47;4950439;28;104098;-86
2023/07/18 04:19:30;;;;;;;;;2.00;2.00;;;;;16.78;100.00;98745.00;4941579;28;102513;-86
2023/07/18 04:21:57;;;;;;;;;1.33;1.00;;;;;16.83;100.00;98753.31;4953568;28;102470;-85
2023/07/18 04:24:25;;;;;;;;;2.00;2.00;;;;;16.83;100.00;98757.94;4949955;28;102243;-86
2023/07/18 04:26:52;;;;;;;;;2.00;1.33;;;;;16.89;100.00;98762.41;4950090;28;104100;-86
2023/07/18 04:29:19;;;;;;;;;0.67;0.67;;;;;16.94;100.00;98776.19;4948769;28;105235;-86
2023/07/18 04:31:47;;;;;;;;;1.67;1.00;;;;;16.94;100.00;98777.03;4947657;28;102141;-85
2023/07/18 04:34:15;;;;;;;;;1.00;1.00;;;;;16.88;100.00;98758.88;4945216;28;102352;-86
2023/07/18 04:36:42;;;;;;;;;1.67;1.67;;;;;17.04;100.00;98790.09;4952711;28;104012;-81
2023/07/18 04:39:10;;;;;;;;;1.33;1.33;;;;;17.04;100.00;98781.06;4951944;28;103977;-85
2023/07/18 04:41:37;;;;;;;;;1.00;1.00;;;;;17.10;100.00;98786.44;4945227;28;103439;-85
2023/07/18 04:44:20;;;;;;;;;3.33;3.33;;;;;17.15;100.00;98786.56;4948100;28;103373;-86
2023/07/18 04:46:47;;;;;;;;;3.00;3.00;;;;;17.27;100.00;98795.56;4932275;28;104304;-85
2023/07/18 04:49:14;;;;;;;;;4.00;4.00;;;;;17.49;100.00;98806.69;4955601;28;103877;-85
2023/07/18 04:51:41;;;;;;;;;1.33;1.33;;;;;17.65;100.00;98805.97;4953100;28;102381;-85
2023/07/18 04:54:08;;;;;;;;;2.00;2.00;;;;;17.88;100.00;98812.47;4961172;28;102412;-85
2023/07/18 04:56:36;;;;;;;;;3.00;3.00;;;;;18.12;98.86;98820.34;4947410;28;107934;-85
2023/07/18 04:59:03;;;;;;;;;3.67;3.00;;;;;18.34;96.98;98834.16;4946870;28;102566;-85
2023/07/18 05:01:30;;;;;;;;;3.33;3.33;;;;;18.56;98.58;98835.16;4949781;28;102475;-87
2023/07/18 05:03:58;;;;;;;;;3.00;3.00;;;;;18.70;95.57;98836.50;4956381;28;102236;-85
2023/07/18 05:06:25;;;;;;;;;2.33;2.33;;;;;18.87;93.13;98844.72;4954644;28;104032;-84
2023/07/18 05:08:53;;;;;;;;;2.67;2.00;;;;;19.06;91.13;98835.19;4953169;28;102536;-86
2023/07/18 05:11:21;;;;;;;;;3.00;3.00;;;;;19.29;89.62;98845.13;4944351;28;102091;-85
2023/07/18 05:13:48;;;;;;;;;3.33;3.00;;;;;19.42;88.29;98842.03;4958247;28;102284;-85
2023/07/18 05:16:15;;;;;;;;;4.00;2.67;;;;;19.56;83.11;98839.78;4957938;28;104043;-84
2023/07/18 05:18:42;;;;;;;;;3.67;3.67;;;;;19.71;83.03;98851.00;4958724;28;102337;-86
2023/07/18 05:21:09;;;;;;;;;5.33;4.00;;;;;19.85;82.77;98844.03;4961107;28;102001;-82
2023/07/18 05:23:36;;;;;;;;;6.00;5.67;;;;;19.76;80.19;98852.97;4959095;28;102080;-87
2023/07/18 05:26:03;;;;;;;;;6.33;6.33;;;;;19.69;81.15;98849.56;4950304;28;104016;-87
2023/07/18 05:28:30;;;;;;;;;8.00;5.00;;;;;19.60;83.46;98855.50;4962266;28;102207;-88
2023/07/18 05:30:58;;;;;;;;;6.00;5.00;;;;;19.71;84.46;98859.22;4966321;28;102441;-90
2023/07/18 05:33:25;;;;;;;;;5.33;5.00;;;;;20.04;79.95;98866.50;4970791;28;102589;-88
2023/07/18 05:35:52;;;;;;;;;4.67;4.67;;;;;20.27;79.28;98863.47;4959723;28;104203;-90
2023/07/18 05:38:19;;;;;;;;;3.33;2.67;;;;;20.46;77.32;98867.56;4958504;28;104722;-89
2023/07/18 05:40:46;;;;;;;;;2.00;1.67;;;;;20.66;76.83;98866.13;4954975;28;102509;-89
2023/07/18 05:43:13;;;;;;;;;4.33;4.33;;;;;20.67;76.00;98874.09;4965892;28;102478;-88
2023/07/18 05:45:40;;;;;;;;;3.00;3.00;;;;;20.67;75.02;98865.06;4940976;28;104008;-90
2023/07/18 05:48:07;;;;;;;;;4.33;2.00;;;;;20.74;73.80;98873.91;4962550;28;101865;-88
2023/07/18 05:50:35;;;;;;;;;6.67;3.00;;;;;20.55;74.46;98880.84;4957398;28;102071;-88
2023/07/18 05:53:02;;;;;;;;;4.67;3.33;;;;;20.41;76.40;98873.00;4962471;28;102416;-93
2023/07/18 05:55:30;;;;;;;;;3.67;2.67;;;;;20.82;78.33;98874.25;4955039;28;104042;-91
2023/07/18 05:57:56;;;;;;;;;7.00;5.33;;;;;20.89;80.82;98879.56;4960198;28;102471;-94
2023/07/18 06:00:23;;;;;;;;;5.00;5.00;;;;;21.23;79.03;98861.72;4955155;28;102320;-93
2023/07/18 06:02:50;;;;;;;;;3.00;3.00;;;;;21.20;72.50;98867.75;4961549;28;102577;-94
2023/07/18 06:05:20;;;;;;;;;5.00;4.00;;;;;20.69;74.74;98877.44;4951697;28;103751;-89
2023/07/18 06:07:47;;;;;;;;;4.67;4.00;;;;;20.76;72.40;98874.47;4955864;28;102236;-94
2023/07/18 06:10:14;;;;;;;;;5.00;4.00;;;;;21.22;77.19;98873.81;4949545;28;104676;-93
2023/07/18 06:12:41;;;;;;;;;3.00;3.00;;;;;21.43;73.44;98868.47;4957266;28;102442;-91
2023/07/18 06:15:08;;;;;;;;;5.00;4.00;;;;;21.61;73.64;98871.63;4964339;28;104101;-93
2023/07/18 06:17:38;;;;;;;;;3.00;3.00;;;;;21.76;77.84;98890.13;4959604;28;102196;-94
2023/07/18 06:20:12;;;;;;;;;5.00;4.00;;;;;21.20;71.00;98878.75;4957072;28;104017;-92
2023/07/18 06:22:40;;;;;;;;;9.00;6.67;;;;;20.67;71.15;98889.78;4960381;28;102085;-90
2023/07/18 06:25:07;;;;;;;;;5.00;4.67;;;;;20.36;78.23;98894.94;4957694;28;108078;-87
2023/07/18 06:27:34;;;;;;;;;5.33;4.33;;;;;20.44;76.13;98897.22;4951854;28;102125;-93
2023/07/18 06:30:02;;;;;;;;;4.00;3.00;;;;;20.84;72.33;98896.00;4957956;28;103770;-92
2023/07/18 06:32:30;;;;;;;;;2.00;2.00;;;;;21.01;69.04;98896.72;4962289;28;102471;-93
2023/07/18 06:34:57;;;;;;;;;4.00;4.00;;;;;21.18;70.60;98897.44;4937949;28;104316;-94
2023/07/18 06:37:32;;;;;;;;;5.00;5.00;;;;;21.21;69.49;98902.41;4952678;28;102198;-89
2023/07/18 06:39:58;;;;;;;;;4.00;4.00;;;;;21.34;66.96;98901.94;4954832;28;102411;-88
2023/07/18 06:42:26;;;;;;;;;3.00;3.00;;;;;21.31;67.69;98896.97;4955602;28;102014;-86
2023/07/18 06:44:53;;;;;;;;;4.67;4.67;;;;;21.26;65.42;98905.19;4940986;28;104193;-89
2023/07/18 06:47:20;;;;;;;;;4.00;3.33;;;;;21.38;67.44;98898.69;4961523;28;102502;-86
2023/07/18 06:49:47;;;;;;;;;4.00;3.67;;;;;21.48;68.34;98902.34;4957334;28;102186;-85
2023/07/18 06:52:14;;;;;;;;;3.00;3.00;;;;;21.73;66.96;98910.78;4961378;28;102258;-87
2023/07/18 06:54:41;;;;;;;;;2.00;2.00;;;;;21.93;67.64;98903.78;4960949;28;104033;-87
2023/07/18 06:57:10;;;;;;;;;5.67;3.33;;;;;22.06;65.31;98900.53;4960030;28;102366;-86
2023/07/18 06:59:37;;;;;;;;;3.33;3.33;;;;;22.13;63.30;98907.44;4945786;28;102566;-85
2023/07/18 07:02:04;;;;;;;;;4.00;3.33;;;;;21.66;64.42;98909.34;4956803;28;102501;-87
2023/07/18 07:04:31;;;;;;;;;4.00;4.00;;;;;21.67;59.77;98911.00;4957265;28;104001;-88
2023/07/18 07:06:59;;;;;;;;;3.00;3.00;;;;;21.49;65.17;98914.16;4958119;28;102426;-85
2023/07/18 07:09:26;;;;;;;;;4.00;3.00;;;;;21.62;63.03;98910.97;4957493;28;102423;-86
2023/07/18 07:11:53;;;;;;;;;3.00;2.00;;;;;21.57;64.82;98908.19;4957770;28;102229;-84
2023/07/18 07:14:20;;;;;;;;;3.00;3.00;;;;;21.74;63.77;98915.19;4959358;28;104042;-86
2023/07/18 07:16:50;;;;;;;;;4.00;4.00;;;;;22.03;65.07;98909.31;4959407;28;101879;-84
2023/07/18 07:19:17;;;;;;;;;3.00;2.00;;;;;21.77;62.22;98906.41;4954595;28;103224;-84
2023/07/18 07:21:45;;;;;;;;;3.00;3.00;;;;;21.24;64.33;98915.66;4961098;28;102320;-85
2023/07/18 07:24:12;;;;;;;;;3.00;3.00;;;;;21.18;67.39;98908.44;4954852;28;104069;-85
2023/07/18 07:26:39;;;;;;;;;3.00;3.00;;;;;21.03;64.95;98916.50;4959663;28;102234;-84
2023/07/18 07:29:07;;;;;;;;;4.00;4.00;;;;;21.55;66.22;98907.63;4953049;28;102363;-85
2023/07/18 07:31:34;;;;;;;;;2.33;2.33;;;;;21.90;65.17;98907.84;4959279;28;102708;-85
2023/07/18 07:34:01;;;;;;;;;2.00;2.00;;;;;22.15;62.59;98908.00;4955687;28;104072;-85
2023/07/18 07:36:29;;;;;;;;;2.00;2.00;;;;;22.18;59.11;98907.47;4957307;28;102282;-84
2023/07/18 07:38:56;;;;;;;;;2.00;2.00;;;;;22.43;60.93;98900.38;4956152;28;102379;-86
2023/07/18 07:41:23;;;;;;;;;2.00;1.00;;;;;22.59;59.77;98904.88;4960561;28;102309;-86
2023/07/18 07:43:51;;;;;;;;;2.00;2.00;;;;;22.63;62.57;98914.25;4959246;28;104020;-85
2023/07/18 07:46:18;;;;;;;;;4.00;3.00;;;;;22.29;61.04;98908.31;4959648;28;102145;-84
2023/07/18 07:48:45;;;;;;;;;4.00;4.00;;;;;22.45;62.89;98907.31;4962958;28;102532;-84
2023/07/18 07:51:18;;;;;;;;;3.00;3.00;;;;;22.11;64.33;98911.59;4956519;28;102341;-88
2023/07/18 07:53:45;;;;;;;;;2.00;2.00;;;;;22.22;59.91;98919.59;4959723;28;103991;-87
2023/07/18 07:56:12;;;;;;;;;6.00;3.67;;;;;22.14;57.99;98906.34;4951221;28;102336;-86
2023/07/18 07:58:39;;;;;;;;;3.67;2.00;;;;;22.22;58.68;98907.75;4961612;28;102403;-82
2023/07/18 08:01:06;;;;;;;;;2.67;2.00;;;;;22.18;60.28;98910.22;4957595;28;102482;-92
2023/07/18 08:03:33;;;;;;;;;4.00;4.00;;;;;;;;4958591;28;104725;-90
2023/07/18 08:06:00;;;;;;;;;3.00;3.00;;;;;21.72;60.82;98908.28;4960108;28;102470;-85
2023/07/18 08:08:27;;;;;;;;;6.00;4.33;;;;;21.83;59.54;98910.00;4950539;28;102110;-83
2023/07/18 08:10:54;;;;;;;;;6.00;4.00;;;;;21.60;62.70;98904.91;4938965;28;102015;-85
2023/07/18 08:13:21;;;;;;;;;3.00;3.00;;;;;21.97;58.71;98905.72;4954398;28;104016;-86
2023/07/18 08:15:52;;;;;;;;;3.67;2.67;;;;;22.09;59.00;98909.09;4964940;28;103111;-87
2023/07/18 08:18:19;;;;;;;;;3.00;3.00;;;;;22.25;60.63;98908.03;4953393;28;103016;-83
2023/07/18 08:20:46;;;;;;;;;3.00;2.00;;;;;22.25;60.37;98902.53;4959532;28;102967;-83
2023/07/18 08:23:14;;;;;;;;;2.00;2.00;;;;;22.40;64.42;98892.66;4948087;28;104151;-85
2023/07/18 08:25:43;;;;;;;;;4.00;4.00;;;;;22.16;58.56;98903.31;4954506;28;102118;-91
2023/07/18 08:28:10;;;;;;;;;2.67;2.67;;;;;22.37;55.98;98907.00;4961675;28;102082;-86
2023/07/18 08:30:40;;;;;;;;;3.00;3.00;;;;;22.09;57.29;98898.06;4961006;28;102056;-84
2023/07/18 08:33:09;;;;;;;;;4.33;4.00;;;;;21.94;57.08;98877.88;4956884;28;103986;-87
2023/07/18 08:35:38;;;;;;;;;3.00;3.00;;;;;22.26;59.15;98900.59;4957082;28;102273;-83
2023/07/18 08:38:05;;;;;;;;;2.00;2.00;;;;;22.38;58.82;98897.66;4963894;28;103294;-85
2023/07/18 08:40:32;;;;;;;;;2.33;2.00;;;;;22.54;59.92;98894.66;4957713;28;102303;-85
2023/07/18 08:42:59;;;;;;;;;1.33;1.33;;;;;22.70;57.99;98892.78;4965567;28;104280;-81
2023/07/18 08:45:32;;;;;;;;;1.00;1.00;;;;;22.92;58.24;98885.09;4934201;28;102440;-83
2023/07/18 08:47:59;;;;;;;;;1.00;1.00;;;;;23.09;55.63;98902.22;4961886;28;103600;-84
2023/07/18 08:50:28;;;;;;;;;2.67;1.00;;;;;23.24;58.85;98901.38;4960552;28;102438;-82
2023/07/18 08:52:55;;;;;;;;;2.00;2.00;;;;;23.09;57.02;98905.00;4960166;28;104057;-84
2023/07/18 08:55:23;;;;;;;;;3.67;3.33;;;;;22.43;58.35;98908.66;4958975;28;102260;-90
2023/07/18 08:57:50;;;;;;;;;6.00;4.67;;;;;22.05;59.17;98899.69;4959180;28;102224;-82
2023/07/18 09:00:20;;;;;;;;;3.00;3.00;;;;;22.34;59.35;98899.25;4961582;28;102378;-83
2023/07/18 09:02:48;;;;;;;;;2.00;2.00;;;;;22.57;56.65;98904.28;4960506;28;104002;-90
2023/07/18 09:05:28;;;;;;;;;3.33;3.00;;;;;22.55;59.91;98892.72;4962880;28;102286;-85
2023/07/18 09:07:57;;;;;;;;;1.67;1.67;;;;;22.73;55.55;98891.41;4953795;28;102473;-84
2023/07/18 09:10:24;;;;;;;;;3.00;3.00;;;;;22.78;56.34;98888.69;4966698;28;102565;-85
2023/07/18 09:12:52;;;;;;;;;2.00;2.00;;;;;22.50;59.14;98881.69;4955862;28;104149;-82
2023/07/18 09:15:20;;;;;;;;;3.00;3.00;;;;;22.39;56.23;98889.09;4957665;28;102171;-82
2023/07/18 09:18:02;;;;;;;;;4.00;4.00;;;;;22.29;55.41;98877.22;4956855;28;102243;-82
2023/07/18 09:20:30;;;;;;;;;3.00;3.00;;;;;22.59;57.37;98878.13;4963808;28;102426;-84
2023/07/18 09:23:05;;;;;;;;;4.00;3.00;;;;;22.37;59.26;98877.53;4955585;28;104178;-85
2023/07/18 09:25:39;;;;;;;;;5.00;3.00;;;;;22.47;54.78;98885.78;4954514;28;102641;-85
2023/07/18 09:28:12;;;;;;;;;2.67;2.33;;;;;22.57;54.29;98890.50;4956351;28;102457;-84
2023/07/18 09:30:39;;;;;;;;;2.00;2.00;;;;;22.63;50.86;98887.50;4958279;28;102373;-84
2023/07/18 09:33:07;;;;;;;;;2.33;2.33;;;;;22.74;53.88;98869.06;4961990;28;104030;-81
2023/07/18 09:35:39;;;;;;;;;2.67;2.67;;;;;22.96;52.30;98875.19;4955943;28;102459;-90
2023/07/18 09:38:10;;;;;;;;;3.00;3.00;;;;;22.73;51.29;98853.66;4954452;28;102243;-84
2023/07/18 09:40:37;;;;;;;;;3.00;2.00;;;;;22.97;50.23;98871.31;4957711;28;102006;-86
2023/07/18 09:43:05;;;;;;;;;4.00;4.00;;;;;22.94;52.99;98863.59;4962182;28;104163;-81
2023/07/18 09:45:33;;;;;;;;;3.00;3.00;;;;;23.09;54.43;98869.13;4938748;28;102329;-81
2023/07/18 09:48:02;;;;;;;;;2.00;2.00;;;;;23.06;49.91;98861.38;4961423;28;102171;-85
2023/07/18 09:50:32;;;;;;;;;1.33;1.00;;;;;23.36;53.93;98868.00;4952239;28;102199;-81
2023/07/18 09:53:01;;;;;;;;;2.00;2.00;;;;;23.35;51.20;98860.84;4956497;28;103659;-82
2023/07/18 09:55:34;;;;;;;;;3.00;2.00;;;;;23.41;51.52;98859.72;4955654;28;102218;-83
2023/07/18 09:58:02;;;;;;;;;4.33;3.00;;;;;23.27;48.05;98853.13;4958576;28;101995;-85
2023/07/18 10:00:30;;;;;;;;;4.00;3.00;;;;;23.29;51.35;98861.94;4956509;28;102545;-87
2023/07/18 10:02:57;;;;;;;;;3.00;3.00;;;;;22.98;52.10;98859.19;4957059;28;104002;-86
2023/07/18 10:05:25;;;;;;;;;2.67;2.00;;;;;23.30;53.06;98850.63;4961873;28;102586;-89
2023/07/18 10:07:53;;;;;;;;;2.33;2.33;;;;;23.28;49.91;98846.50;4956963;28;102400;-82
2023/07/18 10:10:21;;;;;;;;;2.33;2.00;;;;;23.42;50.77;98847.56;4964977;28;102132;-82
2023/07/18 10:12:54;;;;;;;;;4.67;4.00;;;;;23.13;52.86;98850.91;4936051;28;104141;-85
2023/07/18 10:15:22;;;;;;;;;2.00;2.00;;;;;23.14;47.27;98844.28;4961986;28;102281;-90
2023/07/18 10:17:52;;;;;;;;;1.00;1.00;;;;;23.37;51.12;98842.88;4956351;28;102440;-81
2023/07/18 10:20:24;;;;;;;;;2.33;2.00;;;;;23.51;47.48;98838.47;4959110;28;102344;-86
2023/07/18 10:22:59;;;;;;;;;3.00;2.33;;;;;23.58;51.11;98835.44;4956076;28;104226;-84
2023/07/18 10:25:31;;;;;;;;;2.00;2.00;;;;;23.74;49.02;98831.50;4956684;28;102575;-89
2023/07/18 10:27:59;;;;;;;;;2.00;2.00;;;;;23.81;50.94;98822.94;4958731;28;102334;-83
2023/07/18 10:30:46;;;;;;;;;1.33;1.33;;;;;23.75;49.18;98824.88;4958305;28;102436;-83
2023/07/18 10:33:13;;;;;;;;;2.33;2.33;;;;;23.52;46.61;98825.50;4940640;28;108665;-86
2023/07/18 10:35:41;;;;;;;;;2.67;2.00;;;;;23.47;45.58;98828.25;4958534;28;102347;-91
2023/07/18 10:38:09;;;;;;;;;2.67;2.67;;;;;23.20;46.05;98822.19;4958784;28;102405;-84
2023/07/18 10:40:39;;;;;;;;;3.00;3.00;;;;;22.90;46.64;98821.13;4955684;28;102909;-85
2023/07/18 10:43:08;;;;;;;;;3.00;3.00;;;;;23.17;47.74;98809.81;4963501;28;104152;-87
2023/07/18 10:45:40;;;;;;;;;1.67;1.67;;;;;23.44;45.79;98821.38;4957473;28;102315;-85
2023/07/18 10:48:16;;;;;;;;;3.00;2.00;;;;;23.43;46.69;98818.88;4955616;28;102198;-85
2023/07/18 10:50:44;;;;;;;;;1.00;1.00;;;;;23.64;47.93;98812.22;4959585;28;101999;-85
2023/07/18 10:53:19;;;;;;;;;2.00;1.00;;;;;23.85;47.46;98800.00;4961217;28;108715;-84
2023/07/18 10:55:47;;;;;;;;;1.67;1.67;;;;;24.09;49.06;98799.34;4957409;28;102089;-83
2023/07/18 10:58:20;;;;;;;;;2.00;2.00;;;;;23.64;45.85;98797.59;4963326;28;103035;-82
2023/07/18 11:00:49;;;;;;;;;2.00;2.00;;;;;23.65;47.43;98789.03;4968102;28;101939;-86
2023/07/18 11:03:24;;;;;;;;;4.00;3.00;;;;;23.72;43.67;98795.09;4958468;28;103087;-82
2023/07/18 11:05:52;;;;;;;;;2.00;2.00;;;;;23.92;45.60;98789.47;4963911;28;102253;-84
2023/07/18 11:08:29;;;;;;;;;2.00;1.00;;;;;23.85;45.27;98766.03;4956817;28;106001;-82
2023/07/18 11:11:03;;;;;;;;;1.33;1.33;;;;;23.97;46.82;98781.16;4960931;28;102342;-90
2023/07/18 11:13:35;;;;;;;;;3.00;2.00;;;;;23.81;45.59;98779.59;4947279;28;103973;-87
2023/07/18 11:16:07;;;;;;;;;4.00;3.00;;;;;23.67;46.91;98780.47;4959636;28;102004;-82
2023/07/18 11:18:36;;;;;;;;;2.00;2.00;;;;;23.90;46.06;98775.13;4951697;28;102404;-82
2023/07/18 11:21:07;;;;;;;;;2.67;2.00;;;;;24.05;46.10;98773.38;4963412;28;102116;-86
2023/07/18 11:23:36;;;;;;;;;2.67;2.67;;;;;23.71;45.58;98776.84;4956576;28;103976;-85
2023/07/18 11:26:12;;;;;;;;;3.00;3.00;;;;;23.65;45.49;98775.22;4959056;28;102190;-88
2023/07/18 11:28:44;;;;;;;;;4.00;2.67;;;;;23.73;43.46;98769.09;4950618;28;106060;-87